Pigeon Forge, Tennessee
Current Conditions -  °F | °C
As of 2:55 PM on Monday 22 Dec 2014 (Local Time) from KGKT Reporting Station
Clear Clear  
Wind Chill: 57°   Ceiling: Unl
Heat Index: 57°   Visibility: 10mi
Dew Point: 43°   Wind: 0mph
Humidity: 59%   Direction: NA
Pressure: 29.83"   Gusts: NA
Location:  35.79°N, 83.56°W
Report Text: KGKT 221955Z AUTO 00000KT 10SM CLR 14/06 A2983 RMK
Loading
Personal Weather Stations






























Interactive Weather Map New forecast layout! Learn more

10-Day Weather Forecast

Advertisements
Track Severe Weather on mobile